Terminal Aerodrome Forecast
Issued by NWS

Home | Current Version | Previous Version | Text Only | Print | Product List | Glossary On
Versions: 1 2 3 4 5 6 7 8 9 10 11 12 13 14 15
000
FTAK31 PANC 291737
TAFATK
TAF
PATK 291737Z 2918/3018 36008KT P6SM SKC
     FM292000 01014G20KT P6SM FEW080 SCT200
     FM300300 VRB08G15KT P6SM VCSH BKN080
     FM300900 15006KT P6SM -SHRA BKN060 OVC080=

USA.gov is the U.S. government's official web portal to all federal, state and local government web resources and services.